Time,TemperatureF,DewpointF,PressureIn,WindDirection,WindDirectionDegrees,WindSpeedMPH,WindSpeedGustMPH,Humidity,HourlyPrecipIn,Conditions,Clouds,dailyrainin,SolarRadiationWatts/m^2,SoftwareType,DateUTC
2013-04-04 00:00:00,33.4,24.0,30.34,SSE,162,0.0,0.0,68,0.00,,CLR,0.00,0.00,VWS V14.01,2013-04-04 05:00:00,
2013-04-04 00:05:00,33.4,24.3,30.34,SSE,162,0.0,0.0,69,0.00,,CLR,0.00,0.00,VWS V14.01,2013-04-04 05:05:00,
2013-04-04 00:10:00,33.8,24.7,30.34,SSE,162,0.0,0.0,69,0.00,,CLR,0.00,0.00,VWS V14.01,2013-04-04 05:10:00,
2013-04-04 00:15:00,34.0,24.6,30.34,SSE,162,0.0,0.0,68,0.00,,CLR,0.00,0.00,VWS V14.01,2013-04-04 05:15:00,
2013-04-04 00:20:00,34.0,24.6,30.34,SSE,162,0.0,0.0,68,0.00,,CLR,0.00,0.00,VWS V14.01,2013-04-04 05:20:00,
2013-04-04 00:25:00,33.4,23.6,30.34,SSE,162,0.0,0.0,67,0.00,,CLR,0.00,0.00,VWS V14.01,2013-04-04 05:25:00,
2013-04-04 00:31:00,32.8,24.1,30.34,SSE,162,0.0,0.0,70,0.00,,CLR,0.00,0.00,VWS V14.01,2013-04-04 05:31:00,
2013-04-04 00:36:00,32.8,24.5,30.34,SSE,162,0.0,0.0,71,0.00,,CLR,0.00,0.00,VWS V14.01,2013-04-04 05:36:00,
2013-04-04 00:41:00,32.2,23.9,30.34,SSE,162,0.0,0.0,71,0.00,,CLR,0.00,0.00,VWS V14.01,2013-04-04 05:41:00,
2013-04-04 00:46:00,32.2,23.9,30.34,SSE,162,0.0,0.0,71,0.00,,CLR,0.00,0.00,VWS V14.01,2013-04-04 05:46:00,
2013-04-04 00:51:00,32.4,23.4,30.34,SSE,162,0.0,0.0,69,0.00,,CLR,0.00,0.00,VWS V14.01,2013-04-04 05:51:00,
2013-04-04 00:56:00,32.7,23.3,30.33,SSE,162,0.0,0.0,68,0.00,,CLR,0.00,0.00,VWS V14.01,2013-04-04 05:56:00,
2013-04-04 01:01:00,32.6,23.2,30.33,SSE,162,0.0,0.0,68,0.00,,CLR,0.00,0.00,VWS V14.01,2013-04-04 06:01:00,
2013-04-04 01:06:00,32.8,23.4,30.33,SSE,162,0.0,0.0,68,0.00,,CLR,0.00,0.00,VWS V14.01,2013-04-04 06:06:00,
2013-04-04 01:11:00,33.0,23.2,30.33,SSE,162,0.0,0.0,67,0.00,,CLR,0.00,0.00,VWS V14.01,2013-04-04 06:11:00,
2013-04-04 01:16:00,31.6,22.3,30.33,SSE,162,0.0,0.0,68,0.00,,CLR,0.00,0.00,VWS V14.01,2013-04-04 06:16:00,
2013-04-04 01:21:00,30.9,22.6,30.33,SSE,162,0.0,0.0,71,0.00,,CLR,0.00,0.00,VWS V14.01,2013-04-04 06:21:00,
2013-04-04 01:26:00,31.2,23.2,30.33,SSE,162,0.0,0.0,72,0.00,,CLR,0.00,0.00,VWS V14.01,2013-04-04 06:26:00,
2013-04-04 01:31:00,31.8,24.1,30.32,SSE,162,0.0,0.0,73,0.00,,CLR,0.00,0.00,VWS V14.01,2013-04-04 06:31:00,
2013-04-04 01:37:00,31.8,24.1,30.32,SSE,162,0.0,0.0,73,0.00,,CLR,0.00,0.00,VWS V14.01,2013-04-04 06:37:00,
2013-04-04 01:42:00,31.9,24.6,30.32,SSE,162,0.0,1.0,74,0.00,,CLR,0.00,0.00,VWS V14.01,2013-04-04 06:42:00,
2013-04-04 01:47:00,32.0,25.0,30.32,SSE,162,0.0,0.0,75,0.00,,CLR,0.00,0.00,VWS V14.01,2013-04-04 06:47:00,
2013-04-04 01:52:00,31.9,24.9,30.32,SSE,162,0.0,0.0,75,0.00,,CLR,0.00,0.00,VWS V14.01,2013-04-04 06:52:00,
2013-04-04 01:57:00,31.8,24.8,30.32,SSE,162,0.0,1.0,75,0.00,,CLR,0.00,0.00,VWS V14.01,2013-04-04 06:57:00,
2013-04-04 02:02:00,31.7,25.0,30.32,SSE,162,0.0,1.0,76,0.00,,CLR,0.00,0.00,VWS V14.01,2013-04-04 07:02:00,
2013-04-04 02:07:00,31.6,25.5,30.32,SSE,162,0.0,0.0,78,0.00,,CLR,0.00,0.00,VWS V14.01,2013-04-04 07:07:00,
2013-04-04 02:12:00,31.2,25.1,30.32,SSE,162,1.0,2.0,78,0.00,,CLR,0.00,0.00,VWS V14.01,2013-04-04 07:12:00,
2013-04-04 02:17:00,30.9,25.2,30.32,SSE,162,0.0,2.0,79,0.00,,CLR,0.00,0.00,VWS V14.01,2013-04-04 07:17:00,
2013-04-04 02:22:00,30.7,25.3,30.31,South,186,1.0,3.0,80,0.00,,CLR,0.00,0.00,VWS V14.01,2013-04-04 07:22:00,
2013-04-04 02:27:00,30.8,25.4,30.31,South,186,1.0,2.0,80,0.00,,CLR,0.00,0.00,VWS V14.01,2013-04-04 07:27:00,
2013-04-04 02:32:00,31.0,25.9,30.31,South,181,0.0,2.0,81,0.00,,CLR,0.00,0.00,VWS V14.01,2013-04-04 07:32:00,
2013-04-04 02:37:00,31.4,26.2,30.30,SSW,197,2.0,3.0,81,0.00,,CLR,0.00,0.00,VWS V14.01,2013-04-04 07:37:00,
2013-04-04 02:42:00,31.7,26.2,30.30,South,180,1.0,2.0,80,0.00,,CLR,0.00,0.00,VWS V14.01,2013-04-04 07:42:00,
2013-04-04 02:47:00,31.8,26.4,30.30,South,175,3.0,3.0,80,0.00,,CLR,0.00,0.00,VWS V14.01,2013-04-04 07:47:00,
2013-04-04 02:52:00,31.9,26.7,30.30,South,176,4.0,4.0,81,0.00,,CLR,0.00,0.00,VWS V14.01,2013-04-04 07:52:00,
2013-04-04 02:57:00,32.1,26.9,30.30,South,170,4.0,5.0,81,0.00,,CLR,0.00,0.00,VWS V14.01,2013-04-04 07:57:00,
2013-04-04 03:02:00,32.4,26.9,30.30,South,178,5.0,6.0,80,0.00,,CLR,0.00,0.00,VWS V14.01,2013-04-04 08:02:00,
2013-04-04 03:07:00,32.9,27.1,30.29,South,184,6.0,7.0,79,0.00,,CLR,0.00,0.00,VWS V14.01,2013-04-04 08:07:00,
2013-04-04 03:12:00,33.5,27.1,30.29,South,187,5.0,7.0,77,0.00,,CLR,0.00,0.00,VWS V14.01,2013-04-04 08:12:00,
2013-04-04 03:17:00,34.1,27.3,30.29,SSW,205,7.0,8.0,76,0.00,,CLR,0.00,0.00,VWS V14.01,2013-04-04 08:17:00,
2013-04-04 03:22:00,34.5,27.1,30.29,SSW,210,4.0,6.0,74,0.00,,CLR,0.00,0.00,VWS V14.01,2013-04-04 08:22:00,
2013-04-04 03:27:00,34.4,26.7,30.29,SSW,208,3.0,5.0,73,0.00,,CLR,0.00,0.00,VWS V14.01,2013-04-04 08:27:00,
2013-04-04 03:32:00,34.1,26.0,30.29,SSW,207,5.0,5.0,72,0.00,,CLR,0.00,0.00,VWS V14.01,2013-04-04 08:32:00,
2013-04-04 03:37:00,33.8,25.7,30.29,SSW,201,5.0,7.0,72,0.00,,CLR,0.00,0.00,VWS V14.01,2013-04-04 08:37:00,
2013-04-04 03:42:00,33.9,25.5,30.29,SSW,197,4.0,5.0,71,0.00,,CLR,0.00,0.00,VWS V14.01,2013-04-04 08:42:00,
2013-04-04 03:47:00,33.3,25.3,30.28,South,191,5.0,6.0,72,0.00,,CLR,0.00,0.00,VWS V14.01,2013-04-04 08:47:00,
2013-04-04 03:52:00,32.6,24.9,30.28,SSW,193,6.0,6.0,73,0.00,,CLR,0.00,0.00,VWS V14.01,2013-04-04 08:52:00,
2013-04-04 03:57:00,32.3,25.0,30.28,SSW,194,5.0,6.0,74,0.00,,CLR,0.00,0.00,VWS V14.01,2013-04-04 08:57:00,
2013-04-04 04:02:00,31.9,24.6,30.28,South,191,5.0,6.0,74,0.00,,CLR,0.00,0.00,VWS V14.01,2013-04-04 09:02:00,
2013-04-04 04:07:00,31.9,25.2,30.28,SSW,205,5.0,7.0,76,0.00,,CLR,0.00,0.00,VWS V14.01,2013-04-04 09:07:00,
2013-04-04 04:12:00,32.6,25.6,30.28,SSW,200,5.0,7.0,75,0.00,,CLR,0.00,0.00,VWS V14.01,2013-04-04 09:12:00,
2013-04-04 04:17:00,33.1,26.0,30.28,SSW,195,5.0,7.0,75,0.00,,CLR,0.00,0.00,VWS V14.01,2013-04-04 09:17:00,
2013-04-04 04:22:00,33.2,26.1,30.28,SSW,211,4.0,6.0,75,0.00,,CLR,0.00,0.00,VWS V14.01,2013-04-04 09:22:00,
2013-04-04 04:28:00,34.4,26.3,30.28,SW,226,5.0,9.0,72,0.00,,CLR,0.00,0.00,VWS V14.01,2013-04-04 09:28:00,
2013-04-04 04:33:00,35.0,25.5,30.28,SSW,206,6.0,10.0,68,0.00,,CLR,0.00,0.00,VWS V14.01,2013-04-04 09:33:00,
2013-04-04 04:38:00,35.3,25.5,30.28,SW,224,7.0,7.0,67,0.00,,CLR,0.00,0.00,VWS V14.01,2013-04-04 09:38:00,
2013-04-04 04:43:00,35.2,25.0,30.28,SW,230,5.0,5.0,66,0.00,,CLR,0.00,0.00,VWS V14.01,2013-04-04 09:43:00,
2013-04-04 04:48:00,35.1,24.9,30.28,SW,224,4.0,6.0,66,0.00,,CLR,0.00,0.00,VWS V14.01,2013-04-04 09:48:00,
2013-04-04 04:53:00,35.0,24.8,30.28,WSW,242,1.0,3.0,66,0.00,,CLR,0.00,0.00,VWS V14.01,2013-04-04 09:53:00,
2013-04-04 04:58:00,35.0,24.8,30.28,WSW,242,0.0,2.0,66,0.00,,CLR,0.00,0.00,VWS V14.01,2013-04-04 09:58:00,
2013-04-04 05:03:00,34.8,24.2,30.28,SW,226,2.0,4.0,65,0.00,,CLR,0.00,0.00,VWS V14.01,2013-04-04 10:03:00,
2013-04-04 05:08:00,34.4,23.9,30.28,SW,235,5.0,6.0,65,0.00,,CLR,0.00,0.00,VWS V14.01,2013-04-04 10:08:00,
2013-04-04 05:13:00,34.4,23.5,30.28,SW,225,2.0,4.0,64,0.00,,CLR,0.00,0.00,VWS V14.01,2013-04-04 10:13:00,
2013-04-04 05:18:00,34.3,23.4,30.28,SW,225,0.0,0.0,64,0.00,,CLR,0.00,0.00,VWS V14.01,2013-04-04 10:18:00,
2013-04-04 05:23:00,34.3,23.4,30.28,South,174,0.0,0.0,64,0.00,,CLR,0.00,0.00,VWS V14.01,2013-04-04 10:23:00,
2013-04-04 05:28:00,34.4,23.5,30.28,SSE,154,0.0,0.0,64,0.00,,CLR,0.00,0.00,VWS V14.01,2013-04-04 10:28:00,
2013-04-04 05:33:00,34.4,23.1,30.28,SSE,154,0.0,0.0,63,0.00,,CLR,0.00,0.00,VWS V14.01,2013-04-04 10:33:00,
2013-04-04 05:39:00,34.4,23.1,30.28,SSE,154,0.0,0.0,63,0.00,,CLR,0.00,0.00,VWS V14.01,2013-04-04 10:39:00,
2013-04-04 05:44:00,34.4,23.1,30.28,SSE,155,0.0,0.0,63,0.00,,CLR,0.00,0.00,VWS V14.01,2013-04-04 10:44:00,
2013-04-04 05:49:00,34.3,22.6,30.28,SSE,155,0.0,0.0,62,0.00,,CLR,0.00,0.00,VWS V14.01,2013-04-04 10:49:00,
2013-04-04 05:54:00,34.2,22.5,30.28,SSE,155,0.0,0.0,62,0.00,,CLR,0.00,0.00,VWS V14.01,2013-04-04 10:54:00,
2013-04-04 05:59:00,34.1,22.8,30.28,SSE,155,0.0,0.0,63,0.00,,CLR,0.00,0.00,VWS V14.01,2013-04-04 10:59:00,
2013-04-04 06:04:00,33.9,22.6,30.28,SSE,155,0.0,0.0,63,0.00,,CLR,0.00,0.00,VWS V14.01,2013-04-04 11:04:00,
2013-04-04 06:09:00,33.7,22.8,30.28,SSE,155,0.0,0.0,64,0.00,,CLR,0.00,0.00,VWS V14.01,2013-04-04 11:09:00,
2013-04-04 06:14:00,33.6,22.7,30.28,SSE,155,0.0,0.0,64,0.00,,CLR,0.00,0.00,VWS V14.01,2013-04-04 11:14:00,
2013-04-04 06:19:00,33.4,22.5,30.28,SSE,155,0.0,0.0,64,0.00,,CLR,0.00,0.00,VWS V14.01,2013-04-04 11:19:00,
2013-04-04 06:24:00,33.4,22.5,30.28,SSE,155,0.0,0.0,64,0.00,,CLR,0.00,0.00,VWS V14.01,2013-04-04 11:24:00,
2013-04-04 06:29:00,33.4,22.9,30.28,SSE,155,0.0,0.0,65,0.00,,CLR,0.00,0.00,VWS V14.01,2013-04-04 11:29:00,
2013-04-04 06:34:00,33.3,22.8,30.28,SSE,155,0.0,0.0,65,0.00,,CLR,0.00,0.00,VWS V14.01,2013-04-04 11:34:00,
2013-04-04 06:39:00,33.2,22.7,30.28,SSE,155,0.0,0.0,65,0.00,,CLR,0.00,0.00,VWS V14.01,2013-04-04 11:39:00,
2013-04-04 06:44:00,33.1,22.6,30.27,SSE,155,2.0,2.0,65,0.00,,CLR,0.00,0.00,VWS V14.01,2013-04-04 11:44:00,
2013-04-04 06:49:00,32.9,22.8,30.27,South,178,5.0,5.0,66,0.00,,CLR,0.00,0.00,VWS V14.01,2013-04-04 11:49:00,
2013-04-04 06:54:00,32.4,22.7,30.27,WSW,243,4.0,5.0,67,0.00,,CLR,0.00,5.00,VWS V14.01,2013-04-04 11:54:00,
2013-04-04 06:59:00,32.4,22.7,30.27,WSW,249,1.0,3.0,67,0.00,,CLR,0.00,9.00,VWS V14.01,2013-04-04 11:59:00,
2013-04-04 07:05:00,32.3,22.9,30.27,WSW,239,1.0,4.0,68,0.00,,CLR,0.00,11.00,VWS V14.01,2013-04-04 12:05:00,
2013-04-04 07:10:00,32.2,22.5,30.27,WSW,255,1.0,2.0,67,0.00,,CLR,0.00,18.00,VWS V14.01,2013-04-04 12:10:00,
2013-04-04 07:15:00,32.2,22.8,30.27,WSW,255,0.0,1.0,68,0.00,,CLR,0.00,21.00,VWS V14.01,2013-04-04 12:15:00,
2013-04-04 07:20:00,32.3,23.3,30.27,WSW,255,0.0,0.0,69,0.00,,CLR,0.00,30.00,VWS V14.01,2013-04-04 12:20:00,
2013-04-04 07:25:00,32.4,23.4,30.27,WSW,255,0.0,0.0,69,0.00,,CLR,0.00,33.00,VWS V14.01,2013-04-04 12:25:00,
2013-04-04 07:30:00,32.7,24.0,30.27,WSW,255,0.0,0.0,70,0.00,,CLR,0.00,44.00,VWS V14.01,2013-04-04 12:30:00,
2013-04-04 07:35:00,33.0,24.3,30.27,WSW,246,1.0,1.0,70,0.00,,CLR,0.00,53.00,VWS V14.01,2013-04-04 12:35:00,
2013-04-04 07:40:00,33.5,24.8,30.27,SSW,207,0.0,1.0,70,0.00,,CLR,0.00,56.00,VWS V14.01,2013-04-04 12:40:00,
2013-04-04 07:45:00,33.9,25.2,30.27,SSW,207,1.0,2.0,70,0.00,,CLR,0.00,40.00,VWS V14.01,2013-04-04 12:45:00,
2013-04-04 07:50:00,34.2,25.5,30.26,SSW,207,1.0,2.0,70,0.00,,CLR,0.00,76.00,VWS V14.01,2013-04-04 12:50:00,
2013-04-04 07:55:00,34.4,26.0,30.26,SW,217,3.0,4.0,71,0.00,,CLR,0.00,81.00,VWS V14.01,2013-04-04 12:55:00,
2013-04-04 08:00:00,34.8,26.0,30.26,SW,228,3.0,4.0,70,0.00,,CLR,0.00,84.00,VWS V14.01,2013-04-04 13:00:00,
2013-04-04 08:05:00,35.2,26.1,30.26,SW,233,4.0,5.0,69,0.00,,CLR,0.00,86.00,VWS V14.01,2013-04-04 13:05:00,
2013-04-04 08:10:00,35.9,26.4,30.26,SW,224,4.0,6.0,68,0.00,,CLR,0.00,111.00,VWS V14.01,2013-04-04 13:10:00,
2013-04-04 08:15:00,36.5,26.2,30.26,SSW,212,6.0,8.0,66,0.00,,CLR,0.00,148.00,VWS V14.01,2013-04-04 13:15:00,
2013-04-04 08:20:00,37.2,26.2,30.26,SW,220,4.0,5.0,64,0.00,,CLR,0.00,125.00,VWS V14.01,2013-04-04 13:20:00,
2013-04-04 08:25:00,37.9,26.1,30.26,WSW,242,3.0,6.0,62,0.00,,CLR,0.00,130.00,VWS V14.01,2013-04-04 13:25:00,
2013-04-04 08:30:00,38.4,26.9,30.26,SSW,211,5.0,6.0,63,0.00,,CLR,0.00,141.00,VWS V14.01,2013-04-04 13:30:00,
2013-04-04 08:35:00,38.9,27.0,30.25,SSW,208,5.0,6.0,62,0.00,,CLR,0.00,171.00,VWS V14.01,2013-04-04 13:35:00,
2013-04-04 08:40:00,39.5,26.8,30.25,SSW,212,5.0,10.0,60,0.00,,CLR,0.00,218.00,VWS V14.01,2013-04-04 13:40:00,
2013-04-04 08:45:00,39.8,27.1,30.25,SW,222,7.0,7.0,60,0.00,,CLR,0.00,229.00,VWS V14.01,2013-04-04 13:45:00,
2013-04-04 08:50:00,40.5,27.3,30.25,WSW,239,5.0,12.0,59,0.00,,CLR,0.00,281.00,VWS V14.01,2013-04-04 13:50:00,
2013-04-04 08:56:00,41.1,26.6,30.25,WSW,245,6.0,10.0,56,0.00,,CLR,0.00,325.00,VWS V14.01,2013-04-04 13:56:00,
2013-04-04 09:01:00,41.5,26.5,30.25,WSW,239,6.0,7.0,55,0.00,,CLR,0.00,353.00,VWS V14.01,2013-04-04 14:01:00,
2013-04-04 09:06:00,42.2,27.2,30.25,WSW,248,5.0,10.0,55,0.00,,CLR,0.00,369.00,VWS V14.01,2013-04-04 14:06:00,
2013-04-04 09:11:00,42.8,28.2,30.25,WSW,244,7.0,7.0,56,0.00,,CLR,0.00,387.00,VWS V14.01,2013-04-04 14:11:00,
2013-04-04 09:16:00,43.3,27.3,30.24,WSW,243,5.0,8.0,53,0.00,,CLR,0.00,399.00,VWS V14.01,2013-04-04 14:16:00,
2013-04-04 09:21:00,44.1,28.5,30.24,WSW,245,7.0,11.0,54,0.00,,CLR,0.00,411.00,VWS V14.01,2013-04-04 14:21:00,
2013-04-04 09:26:00,44.5,28.5,30.24,WSW,255,9.0,10.0,53,0.00,,CLR,0.00,424.00,VWS V14.01,2013-04-04 14:26:00,
2013-04-04 09:31:00,45.0,28.9,30.24,WSW,258,6.0,13.0,53,0.00,,CLR,0.00,436.00,VWS V14.01,2013-04-04 14:31:00,
2013-04-04 09:36:00,45.6,28.5,30.23,WSW,253,10.0,12.0,51,0.00,,CLR,0.00,446.00,VWS V14.01,2013-04-04 14:36:00,
2013-04-04 09:41:00,46.2,28.1,30.23,WSW,239,8.0,12.0,49,0.00,,CLR,0.00,459.00,VWS V14.01,2013-04-04 14:41:00,
2013-04-04 09:46:00,46.2,28.1,30.23,WSW,249,9.0,14.0,49,0.00,,CLR,0.00,473.00,VWS V14.01,2013-04-04 14:46:00,
2013-04-04 09:52:00,47.0,28.3,30.23,West,280,5.0,12.0,48,0.00,,CLR,0.00,487.00,VWS V14.01,2013-04-04 14:52:00,
2013-04-04 09:57:00,47.3,28.6,30.23,West,263,8.0,14.0,48,0.00,,CLR,0.00,497.00,VWS V14.01,2013-04-04 14:57:00,
2013-04-04 10:02:00,47.7,29.0,30.23,West,262,9.0,12.0,48,0.00,,CLR,0.00,510.00,VWS V14.01,2013-04-04 15:02:00,
2013-04-04 10:07:00,48.1,29.4,30.22,WSW,257,7.0,11.0,48,0.00,,CLR,0.00,524.00,VWS V14.01,2013-04-04 15:07:00,
2013-04-04 10:12:00,48.5,28.7,30.22,WSW,241,5.0,15.0,46,0.00,,CLR,0.00,538.00,VWS V14.01,2013-04-04 15:12:00,
2013-04-04 10:17:00,48.9,30.1,30.22,West,262,6.0,12.0,48,0.00,,CLR,0.00,554.00,VWS V14.01,2013-04-04 15:17:00,
2013-04-04 10:22:00,49.3,28.9,30.22,WSW,252,10.0,14.0,45,0.00,,CLR,0.00,571.00,VWS V14.01,2013-04-04 15:22:00,
2013-04-04 10:27:00,49.3,28.3,30.22,West,271,8.0,14.0,44,0.00,,CLR,0.00,592.00,VWS V14.01,2013-04-04 15:27:00,
2013-04-04 10:32:00,50.2,30.2,30.22,WSW,255,11.0,14.0,46,0.00,,CLR,0.00,613.00,VWS V14.01,2013-04-04 15:32:00,
2013-04-04 10:37:00,50.5,30.0,30.22,West,264,6.0,11.0,45,0.00,,CLR,0.00,635.00,VWS V14.01,2013-04-04 15:37:00,
2013-04-04 10:42:00,51.2,31.7,30.21,WSW,247,11.0,12.0,47,0.00,,CLR,0.00,656.00,VWS V14.01,2013-04-04 15:42:00,
2013-04-04 10:47:00,51.5,30.9,30.21,WSW,251,10.0,13.0,45,0.00,,CLR,0.00,670.00,VWS V14.01,2013-04-04 15:47:00,
2013-04-04 10:53:00,51.9,30.7,30.21,West,275,9.0,12.0,44,0.00,,CLR,0.00,694.00,VWS V14.01,2013-04-04 15:53:00,
2013-04-04 10:58:00,51.6,31.5,30.21,WNW,290,6.0,11.0,46,0.00,,CLR,0.00,612.00,VWS V14.01,2013-04-04 15:58:00,
2013-04-04 11:03:00,52.5,32.3,30.22,WNW,282,4.0,9.0,46,0.00,,CLR,0.00,735.00,VWS V14.01,2013-04-04 16:03:00,
2013-04-04 11:08:00,52.6,31.9,30.21,West,260,14.0,14.0,45,0.00,,CLR,0.00,747.00,VWS V14.01,2013-04-04 16:08:00,
2013-04-04 11:13:00,52.9,32.2,30.21,NW,305,11.0,15.0,45,0.00,,CLR,0.00,751.00,VWS V14.01,2013-04-04 16:13:00,
2013-04-04 11:18:00,52.6,30.8,30.21,West,273,5.0,12.0,43,0.00,,CLR,0.00,749.00,VWS V14.01,2013-04-04 16:18:00,
2013-04-04 11:23:00,52.8,31.5,30.21,WSW,251,7.0,12.0,44,0.00,,CLR,0.00,735.00,VWS V14.01,2013-04-04 16:23:00,
2013-04-04 11:28:00,53.0,31.1,30.21,WNW,285,5.0,14.0,43,0.00,,CLR,0.00,724.00,VWS V14.01,2013-04-04 16:28:00,
2013-04-04 11:33:00,53.6,32.8,30.21,WSW,241,13.0,14.0,45,0.00,,CLR,0.00,710.00,VWS V14.01,2013-04-04 16:33:00,
2013-04-04 11:38:00,54.0,33.2,30.21,West,275,7.0,11.0,45,0.00,,CLR,0.00,705.00,VWS V14.01,2013-04-04 16:38:00,
2013-04-04 11:43:00,53.9,31.9,30.21,WNW,293,7.0,12.0,43,0.00,,CLR,0.00,687.00,VWS V14.01,2013-04-04 16:43:00,
2013-04-04 11:48:00,54.9,33.4,30.21,WSW,257,10.0,12.0,44,0.00,,CLR,0.00,679.00,VWS V14.01,2013-04-04 16:48:00,
2013-04-04 11:53:00,54.7,31.5,30.21,West,279,5.0,12.0,41,0.00,,CLR,0.00,679.00,VWS V14.01,2013-04-04 16:53:00,
2013-04-04 11:58:00,54.5,31.9,30.21,WNW,291,7.0,11.0,42,0.00,,CLR,0.00,684.00,VWS V14.01,2013-04-04 16:58:00,
2013-04-04 12:03:00,54.8,33.3,30.21,West,262,6.0,11.0,44,0.00,,CLR,0.00,689.00,VWS V14.01,2013-04-04 17:03:00,
2013-04-04 12:08:00,54.8,31.6,30.21,WSW,241,8.0,13.0,41,0.00,,CLR,0.00,700.00,VWS V14.01,2013-04-04 17:08:00,
2013-04-04 12:13:00,55.7,33.0,30.20,WSW,243,14.0,16.0,42,0.00,,CLR,0.00,728.00,VWS V14.01,2013-04-04 17:13:00,
2013-04-04 12:18:00,55.7,31.8,30.20,West,263,9.0,14.0,40,0.00,,CLR,0.00,756.00,VWS V14.01,2013-04-04 17:18:00,
2013-04-04 12:23:00,55.6,32.3,30.20,West,274,7.0,16.0,41,0.00,,CLR,0.00,780.00,VWS V14.01,2013-04-04 17:23:00,
2013-04-04 12:28:00,56.2,32.2,30.19,West,259,7.0,14.0,40,0.00,,CLR,0.00,803.00,VWS V14.01,2013-04-04 17:28:00,
2013-04-04 12:33:00,56.4,33.0,30.19,WSW,251,14.0,16.0,41,0.00,,CLR,0.00,821.00,VWS V14.01,2013-04-04 17:33:00,
2013-04-04 12:38:00,55.6,32.9,30.19,NW,312,5.0,10.0,42,0.00,,CLR,0.00,824.00,VWS V14.01,2013-04-04 17:38:00,
2013-04-04 12:43:00,56.4,33.6,30.18,WSW,240,11.0,14.0,42,0.00,,CLR,0.00,812.00,VWS V14.01,2013-04-04 17:43:00,
2013-04-04 12:48:00,56.3,33.5,30.18,West,280,7.0,15.0,42,0.00,,CLR,0.00,786.00,VWS V14.01,2013-04-04 17:48:00,
2013-04-04 12:53:00,56.9,33.5,30.17,West,272,6.0,12.0,41,0.00,,CLR,0.00,759.00,VWS V14.01,2013-04-04 17:53:00,
2013-04-04 12:58:00,56.5,33.1,30.17,SW,232,9.0,11.0,41,0.00,,CLR,0.00,744.00,VWS V14.01,2013-04-04 17:58:00,
2013-04-04 13:03:00,57.2,33.1,30.17,WNW,284,5.0,7.0,40,0.00,,CLR,0.00,737.00,VWS V14.01,2013-04-04 18:03:00,
2013-04-04 13:08:00,57.7,33.6,30.17,WSW,239,9.0,13.0,40,0.00,,CLR,0.00,751.00,VWS V14.01,2013-04-04 18:08:00,
2013-04-04 13:13:00,57.9,33.8,30.17,West,266,8.0,10.0,40,0.00,,CLR,0.00,777.00,VWS V14.01,2013-04-04 18:13:00,
2013-04-04 13:18:00,57.3,32.6,30.16,WSW,241,10.0,12.0,39,0.00,,CLR,0.00,805.00,VWS V14.01,2013-04-04 18:18:00,
2013-04-04 13:23:00,58.5,33.7,30.16,SW,235,6.0,12.0,39,0.00,,CLR,0.00,842.00,VWS V14.01,2013-04-04 18:23:00,
2013-04-04 13:28:00,59.0,34.1,30.16,WSW,255,9.0,11.0,39,0.00,,CLR,0.00,863.00,VWS V14.01,2013-04-04 18:28:00,
2013-04-04 13:33:00,58.5,33.0,30.16,West,259,8.0,13.0,38,0.00,,CLR,0.00,884.00,VWS V14.01,2013-04-04 18:33:00,
2013-04-04 13:39:00,59.0,33.5,30.16,WSW,253,11.0,14.0,38,0.00,,CLR,0.00,886.00,VWS V14.01,2013-04-04 18:39:00,
2013-04-04 13:44:00,59.1,33.5,30.16,SW,233,8.0,11.0,38,0.00,,CLR,0.00,881.00,VWS V14.01,2013-04-04 18:44:00,
2013-04-04 13:49:00,59.8,34.2,30.16,West,259,6.0,11.0,38,0.00,,CLR,0.00,874.00,VWS V14.01,2013-04-04 18:49:00,
2013-04-04 13:54:00,59.9,33.6,30.15,SW,228,5.0,14.0,37,0.00,,CLR,0.00,877.00,VWS V14.01,2013-04-04 18:54:00,
2013-04-04 13:59:00,59.9,34.9,30.15,WSW,255,11.0,13.0,39,0.00,,CLR,0.00,875.00,VWS V14.01,2013-04-04 18:59:00,
2013-04-04 14:04:00,59.7,34.1,30.15,West,265,12.0,13.0,38,0.00,,CLR,0.00,865.00,VWS V14.01,2013-04-04 19:04:00,
2013-04-04 14:09:00,59.9,34.9,30.15,West,278,4.0,7.0,39,0.00,,CLR,0.00,858.00,VWS V14.01,2013-04-04 19:09:00,
2013-04-04 14:14:00,60.6,35.5,30.14,SW,219,12.0,15.0,39,0.00,,CLR,0.00,854.00,VWS V14.01,2013-04-04 19:14:00,
2013-04-04 14:19:00,60.7,35.0,30.14,WSW,246,9.0,13.0,38,0.00,,CLR,0.00,849.00,VWS V14.01,2013-04-04 19:19:00,
2013-04-04 14:24:00,60.6,34.2,30.14,West,271,7.0,13.0,37,0.00,,CLR,0.00,837.00,VWS V14.01,2013-04-04 19:24:00,
2013-04-04 14:29:00,60.5,33.4,30.13,West,264,4.0,12.0,36,0.00,,CLR,0.00,831.00,VWS V14.01,2013-04-04 19:29:00,
2013-04-04 14:34:00,61.4,34.2,30.13,WSW,241,6.0,10.0,36,0.00,,CLR,0.00,833.00,VWS V14.01,2013-04-04 19:34:00,
2013-04-04 14:39:00,62.0,34.1,30.13,SW,235,9.0,14.0,35,0.00,,CLR,0.00,823.00,VWS V14.01,2013-04-04 19:39:00,
2013-04-04 14:44:00,61.3,36.2,30.13,WSW,245,4.0,7.0,39,0.00,,CLR,0.00,816.00,VWS V14.01,2013-04-04 19:44:00,
2013-04-04 14:49:00,61.6,36.4,30.12,West,267,6.0,10.0,39,0.00,,CLR,0.00,802.00,VWS V14.01,2013-04-04 19:49:00,
2013-04-04 14:54:00,61.8,35.3,30.12,WSW,253,7.0,14.0,37,0.00,,CLR,0.00,802.00,VWS V14.01,2013-04-04 19:54:00,
2013-04-04 14:59:00,62.0,36.1,30.12,WSW,239,10.0,10.0,38,0.00,,CLR,0.00,795.00,VWS V14.01,2013-04-04 19:59:00,
2013-04-04 15:04:00,62.5,34.5,30.12,WSW,253,7.0,10.0,35,0.00,,CLR,0.00,796.00,VWS V14.01,2013-04-04 20:04:00,
2013-04-04 15:09:00,63.2,36.5,30.12,WNW,294,6.0,6.0,37,0.00,,CLR,0.00,805.00,VWS V14.01,2013-04-04 20:09:00,
2013-04-04 15:14:00,63.3,35.9,30.11,WSW,246,11.0,16.0,36,0.00,,CLR,0.00,763.00,VWS V14.01,2013-04-04 20:14:00,
2013-04-04 15:19:00,62.9,35.6,30.11,West,262,11.0,16.0,36,0.00,,CLR,0.00,745.00,VWS V14.01,2013-04-04 20:19:00,
2013-04-04 15:24:00,62.9,35.6,30.11,WSW,248,10.0,12.0,36,0.00,,CLR,0.00,738.00,VWS V14.01,2013-04-04 20:24:00,
2013-04-04 15:29:00,63.1,35.0,30.11,WSW,253,12.0,16.0,35,0.00,,CLR,0.00,731.00,VWS V14.01,2013-04-04 20:29:00,
2013-04-04 15:35:00,63.0,36.3,30.11,WSW,243,9.0,12.0,37,0.00,,CLR,0.00,717.00,VWS V14.01,2013-04-04 20:35:00,
2013-04-04 15:40:00,63.2,35.8,30.11,West,273,1.0,6.0,36,0.00,,CLR,0.00,700.00,VWS V14.01,2013-04-04 20:40:00,
2013-04-04 15:45:00,63.1,36.4,30.11,WNW,291,3.0,9.0,37,0.00,,CLR,0.00,687.00,VWS V14.01,2013-04-04 20:45:00,
2013-04-04 15:50:00,62.9,36.2,30.10,North,353,6.0,6.0,37,0.00,,CLR,0.00,679.00,VWS V14.01,2013-04-04 20:50:00,
2013-04-04 15:55:00,63.0,35.7,30.10,WSW,251,13.0,13.0,36,0.00,,CLR,0.00,661.00,VWS V14.01,2013-04-04 20:55:00,
2013-04-04 16:00:00,63.4,36.0,30.10,West,272,7.0,9.0,36,0.00,,CLR,0.00,647.00,VWS V14.01,2013-04-04 21:00:00,
2013-04-04 16:05:00,63.3,36.6,30.10,NW,306,4.0,7.0,37,0.00,,CLR,0.00,629.00,VWS V14.01,2013-04-04 21:05:00,
2013-04-04 16:10:00,63.2,35.1,30.10,West,268,4.0,10.0,35,0.00,,CLR,0.00,619.00,VWS V14.01,2013-04-04 21:10:00,
2013-04-04 16:15:00,63.0,36.3,30.10,WNW,301,1.0,4.0,37,0.00,,CLR,0.00,612.00,VWS V14.01,2013-04-04 21:15:00,
2013-04-04 16:20:00,63.6,35.5,30.10,NW,316,10.0,11.0,35,0.00,,CLR,0.00,594.00,VWS V14.01,2013-04-04 21:20:00,
2013-04-04 16:25:00,63.5,35.4,30.10,North,10,12.0,13.0,35,0.00,,CLR,0.00,573.00,VWS V14.01,2013-04-04 21:25:00,
2013-04-04 16:30:00,63.5,37.5,30.10,NW,320,11.0,11.0,38,0.00,,CLR,0.00,557.00,VWS V14.01,2013-04-04 21:30:00,
2013-04-04 16:35:00,63.2,35.8,30.10,NW,315,6.0,10.0,36,0.00,,CLR,0.00,540.00,VWS V14.01,2013-04-04 21:35:00,
2013-04-04 16:40:00,63.2,36.5,30.10,WNW,282,6.0,9.0,37,0.00,,CLR,0.00,529.00,VWS V14.01,2013-04-04 21:40:00,
2013-04-04 16:45:00,63.9,37.8,30.10,WNW,286,6.0,6.0,38,0.00,,CLR,0.00,515.00,VWS V14.01,2013-04-04 21:45:00,
2013-04-04 16:50:00,63.5,36.8,30.10,NW,318,4.0,7.0,37,0.00,,CLR,0.00,504.00,VWS V14.01,2013-04-04 21:50:00,
2013-04-04 16:55:00,64.0,37.2,30.09,NNW,330,1.0,6.0,37,0.00,,CLR,0.00,494.00,VWS V14.01,2013-04-04 21:55:00,
2013-04-04 17:00:00,63.4,36.7,30.09,North,10,5.0,6.0,37,0.00,,CLR,0.00,503.00,VWS V14.01,2013-04-04 22:00:00,
2013-04-04 17:05:00,64.1,38.0,30.09,NW,326,3.0,11.0,38,0.00,,CLR,0.00,473.00,VWS V14.01,2013-04-04 22:05:00,
2013-04-04 17:10:00,63.8,39.0,30.10,West,268,6.0,13.0,40,0.00,,CLR,0.00,445.00,VWS V14.01,2013-04-04 22:10:00,
2013-04-04 17:15:00,63.5,38.8,30.09,WNW,288,9.0,17.0,40,0.00,,CLR,0.00,427.00,VWS V14.01,2013-04-04 22:15:00,
2013-04-04 17:20:00,63.3,40.5,30.09,West,280,5.0,6.0,43,0.00,,CLR,0.00,404.00,VWS V14.01,2013-04-04 22:20:00,
2013-04-04 17:25:00,63.2,39.8,30.09,NW,326,7.0,7.0,42,0.00,,CLR,0.00,373.00,VWS V14.01,2013-04-04 22:25:00,
2013-04-04 17:30:00,63.2,41.0,30.09,NNW,333,8.0,15.0,44,0.00,,CLR,0.00,366.00,VWS V14.01,2013-04-04 22:30:00,
2013-04-04 17:35:00,62.7,39.9,30.09,North,360,6.0,15.0,43,0.00,,CLR,0.00,290.00,VWS V14.01,2013-04-04 22:35:00,
2013-04-04 17:40:00,62.1,40.5,30.09,West,275,7.0,12.0,45,0.00,,CLR,0.00,116.00,VWS V14.01,2013-04-04 22:40:00,
2013-04-04 17:45:00,61.6,40.6,30.09,NNW,343,5.0,13.0,46,0.00,,CLR,0.00,214.00,VWS V14.01,2013-04-04 22:45:00,
2013-04-04 17:50:00,61.2,41.4,30.09,NNW,336,8.0,12.0,48,0.00,,CLR,0.00,237.00,VWS V14.01,2013-04-04 22:50:00,
2013-04-04 17:55:00,61.1,41.8,30.09,NNW,332,6.0,11.0,49,0.00,,CLR,0.00,169.00,VWS V14.01,2013-04-04 22:55:00,
2013-04-04 18:00:00,60.8,42.1,30.09,NNW,330,9.0,11.0,50,0.00,,CLR,0.00,142.00,VWS V14.01,2013-04-04 23:00:00,
2013-04-04 18:05:00,60.6,41.9,30.09,North,360,9.0,13.0,50,0.00,,CLR,0.00,114.00,VWS V14.01,2013-04-04 23:05:00,
2013-04-04 18:10:00,60.4,41.7,30.09,North,10,8.0,10.0,50,0.00,,CLR,0.00,90.00,VWS V14.01,2013-04-04 23:10:00,
2013-04-04 18:15:00,60.3,41.6,30.09,NW,322,6.0,13.0,50,0.00,,CLR,0.00,153.00,VWS V14.01,2013-04-04 23:15:00,
2013-04-04 18:20:00,60.2,42.0,30.09,NW,322,7.0,7.0,51,0.00,,CLR,0.00,90.00,VWS V14.01,2013-04-04 23:20:00,
2013-04-04 18:25:00,60.0,41.3,30.09,NW,307,6.0,11.0,50,0.00,,CLR,0.00,118.00,VWS V14.01,2013-04-04 23:25:00,
2013-04-04 18:30:00,59.9,41.2,30.09,WNW,295,4.0,9.0,50,0.00,,CLR,0.00,60.00,VWS V14.01,2013-04-04 23:30:00,
2013-04-04 18:35:00,59.8,41.1,30.09,WNW,297,9.0,9.0,50,0.00,,CLR,0.00,91.00,VWS V14.01,2013-04-04 23:35:00,
2013-04-04 18:40:00,59.5,41.4,30.09,NNW,341,5.0,10.0,51,0.00,,CLR,0.00,67.00,VWS V14.01,2013-04-04 23:40:00,
2013-04-04 18:45:00,59.0,40.9,30.09,NNW,346,4.0,11.0,51,0.00,,CLR,0.00,58.00,VWS V14.01,2013-04-04 23:45:00,
2013-04-04 18:50:00,59.0,41.4,30.09,NNW,334,5.0,10.0,52,0.00,,CLR,0.00,51.00,VWS V14.01,2013-04-04 23:50:00,
2013-04-04 18:55:00,58.6,41.0,30.10,NNW,347,3.0,8.0,52,0.00,,CLR,0.00,49.00,VWS V14.01,2013-04-04 23:55:00,
2013-04-04 19:00:00,57.9,41.4,30.10,NW,315,6.0,9.0,54,0.00,,CLR,0.00,44.00,VWS V14.01,2013-04-05 00:00:00,
2013-04-04 19:05:00,57.3,41.3,30.10,NNW,346,3.0,10.0,55,0.00,,CLR,0.00,32.00,VWS V14.01,2013-04-05 00:05:00,
2013-04-04 19:11:00,56.8,40.8,30.10,North,353,4.0,10.0,55,0.00,,CLR,0.00,28.00,VWS V14.01,2013-04-05 00:11:00,
2013-04-04 19:16:00,56.4,40.9,30.10,North,10,9.0,11.0,56,0.00,,CLR,0.00,25.00,VWS V14.01,2013-04-05 00:16:00,
2013-04-04 19:21:00,55.9,40.9,30.10,North,354,3.0,8.0,57,0.00,,CLR,0.00,21.00,VWS V14.01,2013-04-05 00:21:00,
2013-04-04 19:26:00,55.4,40.4,30.11,North,5,10.0,11.0,57,0.00,,CLR,0.00,16.00,VWS V14.01,2013-04-05 00:26:00,
2013-04-04 19:31:00,55.1,40.6,30.11,North,356,6.0,10.0,58,0.00,,CLR,0.00,12.00,VWS V14.01,2013-04-05 00:31:00,
2013-04-04 19:36:00,54.5,40.5,30.11,North,360,6.0,11.0,59,0.00,,CLR,0.00,9.00,VWS V14.01,2013-04-05 00:36:00,
2013-04-04 19:41:00,53.9,40.3,30.11,NNE,18,5.0,10.0,60,0.00,,CLR,0.00,5.00,VWS V14.01,2013-04-05 00:41:00,
2013-04-04 19:46:00,53.2,40.1,30.11,North,10,4.0,10.0,61,0.00,,CLR,0.00,0.00,VWS V14.01,2013-04-05 00:46:00,
2013-04-04 19:51:00,52.6,40.0,30.11,NNE,31,3.0,6.0,62,0.00,,CLR,0.00,0.00,VWS V14.01,2013-04-05 00:51:00,
2013-04-04 19:56:00,52.0,39.8,30.11,NNE,14,3.0,7.0,63,0.00,,CLR,0.00,0.00,VWS V14.01,2013-04-05 00:56:00,
2013-04-04 20:01:00,51.5,39.7,30.11,North,355,5.0,6.0,64,0.00,,CLR,0.00,0.00,VWS V14.01,2013-04-05 01:01:00,
2013-04-04 20:06:00,51.1,39.8,30.12,North,355,5.0,7.0,65,0.00,,CLR,0.00,0.00,VWS V14.01,2013-04-05 01:06:00,
2013-04-04 20:11:00,50.6,39.7,30.12,North,360,6.0,7.0,66,0.00,,CLR,0.00,0.00,VWS V14.01,2013-04-05 01:11:00,
2013-04-04 20:17:00,50.3,39.4,30.12,North,353,3.0,7.0,66,0.00,,CLR,0.00,0.00,VWS V14.01,2013-04-05 01:17:00,
2013-04-04 20:22:00,49.7,39.2,30.12,NNE,17,1.0,6.0,67,0.00,,CLR,0.00,0.00,VWS V14.01,2013-04-05 01:22:00,
2013-04-04 20:27:00,49.2,38.7,30.12,North,10,3.0,7.0,67,0.00,,CLR,0.00,0.00,VWS V14.01,2013-04-05 01:27:00,
2013-04-04 20:32:00,48.9,38.4,30.13,North,349,4.0,6.0,67,0.00,,CLR,0.00,0.00,VWS V14.01,2013-04-05 01:32:00,
2013-04-04 20:37:00,48.6,38.2,30.13,North,10,2.0,5.0,67,0.00,,CLR,0.00,0.00,VWS V14.01,2013-04-05 01:37:00,
2013-04-04 20:42:00,48.2,37.4,30.13,NNE,21,5.0,6.0,66,0.00,,CLR,0.00,0.00,VWS V14.01,2013-04-05 01:42:00,
2013-04-04 20:47:00,47.8,37.0,30.14,NNW,347,4.0,5.0,66,0.00,,CLR,0.00,0.00,VWS V14.01,2013-04-05 01:47:00,
2013-04-04 20:52:00,47.4,36.6,30.13,North,5,3.0,5.0,66,0.00,,CLR,0.00,0.00,VWS V14.01,2013-04-05 01:52:00,
2013-04-04 20:57:00,46.9,36.2,30.14,North,356,4.0,5.0,66,0.00,,CLR,0.00,0.00,VWS V14.01,2013-04-05 01:57:00,
2013-04-04 21:02:00,46.4,35.7,30.14,North,360,4.0,5.0,66,0.00,,CLR,0.00,0.00,VWS V14.01,2013-04-05 02:02:00,
2013-04-04 21:07:00,46.1,35.8,30.14,North,360,1.0,3.0,67,0.00,,CLR,0.00,0.00,VWS V14.01,2013-04-05 02:07:00,
2013-04-04 21:12:00,45.8,35.5,30.14,NNE,16,1.0,2.0,67,0.00,,CLR,0.00,0.00,VWS V14.01,2013-04-05 02:12:00,
2013-04-04 21:17:00,45.5,35.6,30.14,North,5,10.0,10.0,68,0.00,,CLR,0.00,0.00,VWS V14.01,2013-04-05 02:17:00,
2013-04-04 21:22:00,45.5,35.9,30.14,North,360,2.0,8.0,69,0.00,,CLR,0.00,0.00,VWS V14.01,2013-04-05 02:22:00,
2013-04-04 21:27:00,45.8,35.8,30.14,North,360,1.0,7.0,68,0.00,,CLR,0.00,0.00,VWS V14.01,2013-04-05 02:27:00,
2013-04-04 21:32:00,46.0,35.7,30.14,North,5,2.0,5.0,67,0.00,,CLR,0.00,0.00,VWS V14.01,2013-04-05 02:32:00,
2013-04-04 21:37:00,46.0,35.3,30.14,NE,37,4.0,5.0,66,0.00,,CLR,0.00,0.00,VWS V14.01,2013-04-05 02:37:00,
2013-04-04 21:42:00,46.0,35.7,30.14,NNE,20,2.0,5.0,67,0.00,,CLR,0.00,0.00,VWS V14.01,2013-04-05 02:42:00,
2013-04-04 21:47:00,45.9,35.2,30.14,NNE,16,2.0,5.0,66,0.00,,CLR,0.00,0.00,VWS V14.01,2013-04-05 02:47:00,
2013-04-04 21:52:00,45.8,35.1,30.14,North,351,3.0,4.0,66,0.00,,CLR,0.00,0.00,VWS V14.01,2013-04-05 02:52:00,
2013-04-04 21:57:00,45.8,35.1,30.15,North,10,7.0,7.0,66,0.00,,CLR,0.00,0.00,VWS V14.01,2013-04-05 02:57:00,
2013-04-04 22:02:00,45.7,35.4,30.15,NNE,16,2.0,8.0,67,0.00,,CLR,0.00,0.00,VWS V14.01,2013-04-05 03:02:00,
2013-04-04 22:07:00,45.6,35.3,30.15,North,355,4.0,7.0,67,0.00,,CLR,0.00,0.00,VWS V14.01,2013-04-05 03:07:00,
2013-04-04 22:12:00,45.5,35.2,30.15,North,5,6.0,11.0,67,0.00,,CLR,0.00,0.00,VWS V14.01,2013-04-05 03:12:00,
2013-04-04 22:17:00,45.4,35.5,30.15,North,10,6.0,7.0,68,0.00,,CLR,0.00,0.00,VWS V14.01,2013-04-05 03:17:00,
2013-04-04 22:22:00,45.3,35.4,30.15,North,10,5.0,6.0,68,0.00,,CLR,0.00,0.00,VWS V14.01,2013-04-05 03:22:00,
2013-04-04 22:27:00,45.3,35.4,30.15,NNE,31,5.0,6.0,68,0.00,,CLR,0.00,0.00,VWS V14.01,2013-04-05 03:27:00,
2013-04-04 22:32:00,45.2,35.3,30.15,North,5,3.0,9.0,68,0.00,,CLR,0.00,0.00,VWS V14.01,2013-04-05 03:32:00,
2013-04-04 22:37:00,45.2,35.3,30.16,North,360,2.0,6.0,68,0.00,,CLR,0.00,0.00,VWS V14.01,2013-04-05 03:37:00,
2013-04-04 22:42:00,45.2,35.3,30.16,North,360,3.0,9.0,68,0.00,,CLR,0.00,0.00,VWS V14.01,2013-04-05 03:42:00,
2013-04-04 22:47:00,45.0,35.1,30.16,North,10,3.0,6.0,68,0.00,,CLR,0.00,0.00,VWS V14.01,2013-04-05 03:47:00,
2013-04-04 22:52:00,44.9,35.0,30.16,NNW,329,4.0,6.0,68,0.00,,CLR,0.00,0.00,VWS V14.01,2013-04-05 03:52:00,
2013-04-04 22:57:00,44.6,35.1,30.16,NNE,23,6.0,7.0,69,0.00,,CLR,0.00,0.00,VWS V14.01,2013-04-05 03:57:00,
2013-04-04 23:00:00,44.5,35.0,30.17,North,349,7.0,9.0,69,0.00,,CLR,0.00,0.00,VWS V14.01,2013-04-05 04:00:00,
2013-04-04 23:05:00,44.2,34.7,30.17,NW,323,5.0,8.0,69,0.00,,CLR,0.00,0.00,VWS V14.01,2013-04-05 04:05:00,
2013-04-04 23:10:00,44.0,34.9,30.17,North,360,4.0,7.0,70,0.00,,CLR,0.00,0.00,VWS V14.01,2013-04-05 04:10:00,
2013-04-04 23:15:00,43.7,34.6,30.17,North,10,3.0,7.0,70,0.00,,CLR,0.00,0.00,VWS V14.01,2013-04-05 04:15:00,
2013-04-04 23:20:00,43.5,34.4,30.17,North,360,4.0,5.0,70,0.00,,CLR,0.00,0.00,VWS V14.01,2013-04-05 04:20:00,
2013-04-04 23:25:00,43.2,34.5,30.17,North,355,5.0,5.0,71,0.00,,CLR,0.00,0.00,VWS V14.01,2013-04-05 04:25:00,
2013-04-04 23:30:00,43.0,34.2,30.17,North,349,2.0,6.0,71,0.00,,CLR,0.00,0.00,VWS V14.01,2013-04-05 04:30:00,
2013-04-04 23:35:00,42.8,34.1,30.17,North,360,2.0,5.0,71,0.00,,CLR,0.00,0.00,VWS V14.01,2013-04-05 04:35:00,
2013-04-04 23:40:00,42.5,34.1,30.17,NNW,345,5.0,6.0,72,0.00,,CLR,0.00,0.00,VWS V14.01,2013-04-05 04:40:00,
2013-04-04 23:45:00,42.3,34.3,30.17,NNW,341,7.0,7.0,73,0.00,,CLR,0.00,0.00,VWS V14.01,2013-04-05 04:45:00,
2013-04-04 23:50:00,42.1,34.1,30.18,North,10,7.0,7.0,73,0.00,,CLR,0.00,0.00,VWS V14.01,2013-04-05 04:50:00,
2013-04-04 23:55:00,41.9,34.2,30.18,NNE,26,4.0,7.0,74,0.00,,CLR,0.00,0.00,VWS V14.01,2013-04-05 04:55:00,